sensor_id;sensor_type;location;lat;lon;timestamp;temperature;humidity
69944;DHT22;57257;48.408;-4.498;2023-08-30T00:00:03;17.30;71.82
69944;DHT22;57257;48.408;-4.498;2023-08-30T00:02:29;17.27;71.75
69944;DHT22;57257;48.408;-4.498;2023-08-30T00:04:59;17.24;71.62
69944;DHT22;57257;48.408;-4.498;2023-08-30T00:07:24;17.23;71.71
69944;DHT22;57257;48.408;-4.498;2023-08-30T00:09:50;17.19;71.65
69944;DHT22;57257;48.408;-4.498;2023-08-30T00:12:15;17.16;71.60
69944;DHT22;57257;48.408;-4.498;2023-08-30T00:14:41;17.13;71.48
69944;DHT22;57257;48.408;-4.498;2023-08-30T00:17:07;17.08;71.50
69944;DHT22;57257;48.408;-4.498;2023-08-30T00:19:32;17.05;71.56
69944;DHT22;57257;48.408;-4.498;2023-08-30T00:21:57;17.01;71.62
69944;DHT22;57257;48.408;-4.498;2023-08-30T00:24:23;16.93;71.74
69944;DHT22;57257;48.408;-4.498;2023-08-30T00:26:48;16.88;71.87
69944;DHT22;57257;48.408;-4.498;2023-08-30T00:29:14;16.83;72.00
69944;DHT22;57257;48.408;-4.498;2023-08-30T00:31:39;16.82;72.08
69944;DHT22;57257;48.408;-4.498;2023-08-30T00:34:05;16.81;71.98
69944;DHT22;57257;48.408;-4.498;2023-08-30T00:36:30;16.75;72.08
69944;DHT22;57257;48.408;-4.498;2023-08-30T00:38:55;16.73;72.07
69944;DHT22;57257;48.408;-4.498;2023-08-30T00:41:21;16.69;72.09
69944;DHT22;57257;48.408;-4.498;2023-08-30T00:43:46;16.65;72.12
69944;DHT22;57257;48.408;-4.498;2023-08-30T00:46:12;16.62;72.17
69944;DHT22;57257;48.408;-4.498;2023-08-30T00:48:38;16.58;72.14
69944;DHT22;57257;48.408;-4.498;2023-08-30T00:51:04;16.55;72.01
69944;DHT22;57257;48.408;-4.498;2023-08-30T00:53:30;16.49;72.09
69944;DHT22;57257;48.408;-4.498;2023-08-30T00:55:55;16.47;72.14
69944;DHT22;57257;48.408;-4.498;2023-08-30T00:58:21;16.45;72.17
69944;DHT22;57257;48.408;-4.498;2023-08-30T01:00:46;16.45;72.31
69944;DHT22;57257;48.408;-4.498;2023-08-30T01:03:13;16.42;72.25
69944;DHT22;57257;48.408;-4.498;2023-08-30T01:05:38;16.42;72.23
69944;DHT22;57257;48.408;-4.498;2023-08-30T01:08:04;16.45;72.32
69944;DHT22;57257;48.408;-4.498;2023-08-30T01:10:54;16.41;72.19
69944;DHT22;57257;48.408;-4.498;2023-08-30T01:13:25;16.35;72.30
69944;DHT22;57257;48.408;-4.498;2023-08-30T01:15:54;16.32;72.30
69944;DHT22;57257;48.408;-4.498;2023-08-30T01:18:22;16.32;72.48
69944;DHT22;57257;48.408;-4.498;2023-08-30T01:20:52;16.32;72.29
69944;DHT22;57257;48.408;-4.498;2023-08-30T01:23:27;16.27;72.36
69944;DHT22;57257;48.408;-4.498;2023-08-30T01:26:11;16.28;72.21
69944;DHT22;57257;48.408;-4.498;2023-08-30T01:28:39;16.25;72.24
69944;DHT22;57257;48.408;-4.498;2023-08-30T01:31:06;16.24;72.37
69944;DHT22;57257;48.408;-4.498;2023-08-30T01:33:33;16.29;72.39
69944;DHT22;57257;48.408;-4.498;2023-08-30T01:36:01;16.27;72.31
69944;DHT22;57257;48.408;-4.498;2023-08-30T01:38:28;16.24;72.17
69944;DHT22;57257;48.408;-4.498;2023-08-30T01:40:56;16.20;72.19
69944;DHT22;57257;48.408;-4.498;2023-08-30T01:43:25;16.17;72.12
69944;DHT22;57257;48.408;-4.498;2023-08-30T01:45:51;16.16;72.30
69944;DHT22;57257;48.408;-4.498;2023-08-30T01:48:18;16.13;72.34
69944;DHT22;57257;48.408;-4.498;2023-08-30T01:50:45;16.14;72.40
69944;DHT22;57257;48.408;-4.498;2023-08-30T01:53:12;16.16;72.46
69944;DHT22;57257;48.408;-4.498;2023-08-30T01:55:38;16.11;72.34
69944;DHT22;57257;48.408;-4.498;2023-08-30T01:58:06;16.07;72.18
69944;DHT22;57257;48.408;-4.498;2023-08-30T02:00:31;16.03;72.18
69944;DHT22;57257;48.408;-4.498;2023-08-30T02:02:57;15.98;72.38
69944;DHT22;57257;48.408;-4.498;2023-08-30T02:05:23;15.98;72.79
69944;DHT22;57257;48.408;-4.498;2023-08-30T02:08:06;15.97;72.76
69944;DHT22;57257;48.408;-4.498;2023-08-30T02:10:37;15.97;72.69
69944;DHT22;57257;48.408;-4.498;2023-08-30T02:13:06;15.97;72.62
69944;DHT22;57257;48.408;-4.498;2023-08-30T02:15:33;15.90;72.49
69944;DHT22;57257;48.408;-4.498;2023-08-30T02:17:59;15.89;72.59
69944;DHT22;57257;48.408;-4.498;2023-08-30T02:20:25;15.86;72.55
69944;DHT22;57257;48.408;-4.498;2023-08-30T02:22:51;15.84;72.61
69944;DHT22;57257;48.408;-4.498;2023-08-30T02:25:16;15.86;72.72
69944;DHT22;57257;48.408;-4.498;2023-08-30T02:27:42;15.84;72.83
69944;DHT22;57257;48.408;-4.498;2023-08-30T02:30:08;15.84;72.80
69944;DHT22;57257;48.408;-4.498;2023-08-30T02:32:33;15.84;72.78
69944;DHT22;57257;48.408;-4.498;2023-08-30T02:34:59;15.80;72.88
69944;DHT22;57257;48.408;-4.498;2023-08-30T02:37:24;15.79;72.88
69944;DHT22;57257;48.408;-4.498;2023-08-30T02:39:50;15.76;72.96
69944;DHT22;57257;48.408;-4.498;2023-08-30T02:42:16;15.74;73.05
69944;DHT22;57257;48.408;-4.498;2023-08-30T02:44:41;15.74;73.03
69944;DHT22;57257;48.408;-4.498;2023-08-30T02:47:07;15.73;72.88
69944;DHT22;57257;48.408;-4.498;2023-08-30T02:49:32;15.70;72.96
69944;DHT22;57257;48.408;-4.498;2023-08-30T02:51:57;15.64;72.88
69944;DHT22;57257;48.408;-4.498;2023-08-30T02:54:23;15.63;72.92
69944;DHT22;57257;48.408;-4.498;2023-08-30T02:56:48;15.60;73.03
69944;DHT22;57257;48.408;-4.498;2023-08-30T02:59:14;15.60;73.16
69944;DHT22;57257;48.408;-4.498;2023-08-30T03:01:39;15.60;73.07
69944;DHT22;57257;48.408;-4.498;2023-08-30T03:04:05;15.53;73.19
69944;DHT22;57257;48.408;-4.498;2023-08-30T03:06:32;15.54;73.32
69944;DHT22;57257;48.408;-4.498;2023-08-30T03:08:58;15.56;73.35
69944;DHT22;57257;48.408;-4.498;2023-08-30T03:11:23;15.57;73.40
69944;DHT22;57257;48.408;-4.498;2023-08-30T03:13:48;15.56;73.33
69944;DHT22;57257;48.408;-4.498;2023-08-30T03:16:16;15.56;73.37
69944;DHT22;57257;48.408;-4.498;2023-08-30T03:18:43;15.56;73.33
69944;DHT22;57257;48.408;-4.498;2023-08-30T03:21:09;15.53;73.37
69944;DHT22;57257;48.408;-4.498;2023-08-30T03:23:36;15.53;73.53
69944;DHT22;57257;48.408;-4.498;2023-08-30T03:26:15;15.52;73.50
69944;DHT22;57257;48.408;-4.498;2023-08-30T03:28:41;15.54;73.62
69944;DHT22;57257;48.408;-4.498;2023-08-30T03:31:19;15.54;73.74
69944;DHT22;57257;48.408;-4.498;2023-08-30T03:33:46;15.56;73.78
69944;DHT22;57257;48.408;-4.498;2023-08-30T03:36:13;15.59;73.75
69944;DHT22;57257;48.408;-4.498;2023-08-30T03:38:39;15.56;73.44
69944;DHT22;57257;48.408;-4.498;2023-08-30T03:41:05;15.53;73.36
69944;DHT22;57257;48.408;-4.498;2023-08-30T03:43:31;15.49;73.54
69944;DHT22;57257;48.408;-4.498;2023-08-30T03:45:58;15.52;73.54
69944;DHT22;57257;48.408;-4.498;2023-08-30T03:48:23;15.47;73.55
69944;DHT22;57257;48.408;-4.498;2023-08-30T03:50:48;15.49;73.44
69944;DHT22;57257;48.408;-4.498;2023-08-30T03:53:14;15.43;73.49
69944;DHT22;57257;48.408;-4.498;2023-08-30T03:55:40;15.43;73.50
69944;DHT22;57257;48.408;-4.498;2023-08-30T03:58:06;15.42;73.59
69944;DHT22;57257;48.408;-4.498;2023-08-30T04:00:31;15.40;73.66
69944;DHT22;57257;48.408;-4.498;2023-08-30T04:02:56;15.36;73.67
69944;DHT22;57257;48.408;-4.498;2023-08-30T04:05:22;15.36;73.78
69944;DHT22;57257;48.408;-4.498;2023-08-30T04:07:47;15.36;73.84
69944;DHT22;57257;48.408;-4.498;2023-08-30T04:10:13;15.36;73.90
69944;DHT22;57257;48.408;-4.498;2023-08-30T04:12:38;15.39;73.90
69944;DHT22;57257;48.408;-4.498;2023-08-30T04:15:04;15.35;73.74
69944;DHT22;57257;48.408;-4.498;2023-08-30T04:17:29;15.30;73.87
69944;DHT22;57257;48.408;-4.498;2023-08-30T04:19:55;15.28;73.86
69944;DHT22;57257;48.408;-4.498;2023-08-30T04:22:20;15.25;74.03
69944;DHT22;57257;48.408;-4.498;2023-08-30T04:24:46;15.23;74.03
69944;DHT22;57257;48.408;-4.498;2023-08-30T04:27:11;15.22;74.11
69944;DHT22;57257;48.408;-4.498;2023-08-30T04:29:37;15.22;73.97
69944;DHT22;57257;48.408;-4.498;2023-08-30T04:32:03;15.20;74.01
69944;DHT22;57257;48.408;-4.498;2023-08-30T04:34:28;15.18;74.07
69944;DHT22;57257;48.408;-4.498;2023-08-30T04:36:55;15.19;74.06
69944;DHT22;57257;48.408;-4.498;2023-08-30T04:39:21;15.19;74.06
69944;DHT22;57257;48.408;-4.498;2023-08-30T04:41:46;15.15;73.99
69944;DHT22;57257;48.408;-4.498;2023-08-30T04:44:11;15.15;73.95
69944;DHT22;57257;48.408;-4.498;2023-08-30T04:46:37;15.13;74.02
69944;DHT22;57257;48.408;-4.498;2023-08-30T04:49:02;15.10;74.07
69944;DHT22;57257;48.408;-4.498;2023-08-30T04:51:28;15.12;74.02
69944;DHT22;57257;48.408;-4.498;2023-08-30T04:53:54;15.12;74.03
69944;DHT22;57257;48.408;-4.498;2023-08-30T04:56:19;15.13;74.05
69944;DHT22;57257;48.408;-4.498;2023-08-30T04:58:44;15.10;74.07
69944;DHT22;57257;48.408;-4.498;2023-08-30T05:01:10;15.10;74.02
69944;DHT22;57257;48.408;-4.498;2023-08-30T05:03:38;15.08;74.00
69944;DHT22;57257;48.408;-4.498;2023-08-30T05:06:04;15.05;74.04
69944;DHT22;57257;48.408;-4.498;2023-08-30T05:08:29;15.03;74.10
69944;DHT22;57257;48.408;-4.498;2023-08-30T05:10:55;15.06;74.14
69944;DHT22;57257;48.408;-4.498;2023-08-30T05:13:20;15.06;74.06
69944;DHT22;57257;48.408;-4.498;2023-08-30T05:15:46;15.05;73.90
69944;DHT22;57257;48.408;-4.498;2023-08-30T05:18:11;15.02;73.82
69944;DHT22;57257;48.408;-4.498;2023-08-30T05:20:37;14.99;73.88
69944;DHT22;57257;48.408;-4.498;2023-08-30T05:23:02;14.92;73.78
69944;DHT22;57257;48.408;-4.498;2023-08-30T05:25:27;14.91;74.13
69944;DHT22;57257;48.408;-4.498;2023-08-30T05:27:53;14.92;74.00
69944;DHT22;57257;48.408;-4.498;2023-08-30T05:30:19;14.88;74.04
69944;DHT22;57257;48.408;-4.498;2023-08-30T05:32:44;14.85;74.06
69944;DHT22;57257;48.408;-4.498;2023-08-30T05:35:10;14.87;73.98
69944;DHT22;57257;48.408;-4.498;2023-08-30T05:37:35;14.82;73.95
69944;DHT22;57257;48.408;-4.498;2023-08-30T05:40:01;14.85;74.01
69944;DHT22;57257;48.408;-4.498;2023-08-30T05:42:26;14.81;73.97
69944;DHT22;57257;48.408;-4.498;2023-08-30T05:44:53;14.84;74.14
69944;DHT22;57257;48.408;-4.498;2023-08-30T05:47:18;14.82;74.20
69944;DHT22;57257;48.408;-4.498;2023-08-30T05:49:44;14.82;74.29
69944;DHT22;57257;48.408;-4.498;2023-08-30T05:52:09;14.87;74.26
69944;DHT22;57257;48.408;-4.498;2023-08-30T05:54:35;14.88;74.24
69944;DHT22;57257;48.408;-4.498;2023-08-30T05:57:01;14.89;74.24
69944;DHT22;57257;48.408;-4.498;2023-08-30T05:59:26;14.93;74.18
69944;DHT22;57257;48.408;-4.498;2023-08-30T06:01:53;14.95;74.13
69944;DHT22;57257;48.408;-4.498;2023-08-30T06:04:18;14.99;74.11
69944;DHT22;57257;48.408;-4.498;2023-08-30T06:06:43;15.05;74.11
69944;DHT22;57257;48.408;-4.498;2023-08-30T06:09:09;15.09;73.99
69944;DHT22;57257;48.408;-4.498;2023-08-30T06:11:34;15.15;73.85
69944;DHT22;57257;48.408;-4.498;2023-08-30T06:14:00;15.23;73.83
69944;DHT22;57257;48.408;-4.498;2023-08-30T06:16:25;15.30;73.74
69944;DHT22;57257;48.408;-4.498;2023-08-30T06:18:50;15.46;73.66
69944;DHT22;57257;48.408;-4.498;2023-08-30T06:21:16;15.54;73.43
69944;DHT22;57257;48.408;-4.498;2023-08-30T06:23:42;15.62;73.25
69944;DHT22;57257;48.408;-4.498;2023-08-30T06:26:07;15.71;73.19
69944;DHT22;57257;48.408;-4.498;2023-08-30T06:28:32;15.79;73.14
69944;DHT22;57257;48.408;-4.498;2023-08-30T06:30:58;15.86;73.12
69944;DHT22;57257;48.408;-4.498;2023-08-30T06:33:23;15.97;72.94
69944;DHT22;57257;48.408;-4.498;2023-08-30T06:35:49;16.08;72.64
69944;DHT22;57257;48.408;-4.498;2023-08-30T06:38:19;16.17;72.35
69944;DHT22;57257;48.408;-4.498;2023-08-30T06:40:48;16.21;72.25
69944;DHT22;57257;48.408;-4.498;2023-08-30T06:43:14;16.31;72.31
69944;DHT22;57257;48.408;-4.498;2023-08-30T06:45:41;16.38;72.37
69944;DHT22;57257;48.408;-4.498;2023-08-30T06:48:07;16.51;72.18
69944;DHT22;57257;48.408;-4.498;2023-08-30T06:50:35;16.57;72.18
69944;DHT22;57257;48.408;-4.498;2023-08-30T06:53:02;16.67;72.04
69944;DHT22;57257;48.408;-4.498;2023-08-30T06:55:28;16.76;72.05
69944;DHT22;57257;48.408;-4.498;2023-08-30T06:57:55;16.86;71.77
69944;DHT22;57257;48.408;-4.498;2023-08-30T07:00:20;16.91;71.64
69944;DHT22;57257;48.408;-4.498;2023-08-30T07:02:46;16.98;71.46
69944;DHT22;57257;48.408;-4.498;2023-08-30T07:05:12;17.08;71.40
69944;DHT22;57257;48.408;-4.498;2023-08-30T07:07:39;17.18;71.23
69944;DHT22;57257;48.408;-4.498;2023-08-30T07:10:05;17.29;71.21
69944;DHT22;57257;48.408;-4.498;2023-08-30T07:12:30;17.39;70.85
69944;DHT22;57257;48.408;-4.498;2023-08-30T07:14:56;17.46;70.76
69944;DHT22;57257;48.408;-4.498;2023-08-30T07:17:21;17.51;70.55
69944;DHT22;57257;48.408;-4.498;2023-08-30T07:19:47;17.57;70.41
69944;DHT22;57257;48.408;-4.498;2023-08-30T07:22:12;17.66;70.50
69944;DHT22;57257;48.408;-4.498;2023-08-30T07:24:38;17.80;70.49
69944;DHT22;57257;48.408;-4.498;2023-08-30T07:27:03;17.88;70.23
69944;DHT22;57257;48.408;-4.498;2023-08-30T07:29:32;18.01;69.95
69944;DHT22;57257;48.408;-4.498;2023-08-30T07:31:57;18.14;69.91
69944;DHT22;57257;48.408;-4.498;2023-08-30T07:34:22;18.31;69.90
69944;DHT22;57257;48.408;-4.498;2023-08-30T07:36:48;18.51;69.72
69944;DHT22;57257;48.408;-4.498;2023-08-30T07:39:14;18.71;69.43
69944;DHT22;57257;48.408;-4.498;2023-08-30T07:41:39;18.88;69.11
69944;DHT22;57257;48.408;-4.498;2023-08-30T07:44:05;19.03;68.68
69944;DHT22;57257;48.408;-4.498;2023-08-30T07:46:30;19.19;68.67
69944;DHT22;57257;48.408;-4.498;2023-08-30T07:48:56;19.40;68.58
69944;DHT22;57257;48.408;-4.498;2023-08-30T07:51:21;19.60;68.36
69944;DHT22;57257;48.408;-4.498;2023-08-30T07:53:47;19.80;67.37
69944;DHT22;57257;48.408;-4.498;2023-08-30T07:56:13;20.01;67.11
69944;DHT22;57257;48.408;-4.498;2023-08-30T07:58:40;20.19;66.93
69944;DHT22;57257;48.408;-4.498;2023-08-30T08:01:07;20.35;65.83
69944;DHT22;57257;48.408;-4.498;2023-08-30T08:03:34;20.51;66.07
69944;DHT22;57257;48.408;-4.498;2023-08-30T08:06:00;20.65;65.47
69944;DHT22;57257;48.408;-4.498;2023-08-30T08:08:25;20.77;65.47
69944;DHT22;57257;48.408;-4.498;2023-08-30T08:10:51;20.87;65.21
69944;DHT22;57257;48.408;-4.498;2023-08-30T08:13:18;20.96;64.75
69944;DHT22;57257;48.408;-4.498;2023-08-30T08:15:44;20.90;64.15
69944;DHT22;57257;48.408;-4.498;2023-08-30T08:18:09;20.82;64.00
69944;DHT22;57257;48.408;-4.498;2023-08-30T08:20:35;20.89;64.02
69944;DHT22;57257;48.408;-4.498;2023-08-30T08:23:02;20.95;63.63
69944;DHT22;57257;48.408;-4.498;2023-08-30T08:25:28;20.89;63.26
69944;DHT22;57257;48.408;-4.498;2023-08-30T08:27:53;20.82;62.87
69944;DHT22;57257;48.408;-4.498;2023-08-30T08:30:18;20.71;63.22
69944;DHT22;57257;48.408;-4.498;2023-08-30T08:32:45;20.63;63.12
69944;DHT22;57257;48.408;-4.498;2023-08-30T08:35:11;20.53;62.68
69944;DHT22;57257;48.408;-4.498;2023-08-30T08:37:37;20.51;62.85
69944;DHT22;57257;48.408;-4.498;2023-08-30T08:40:03;20.65;63.11
69944;DHT22;57257;48.408;-4.498;2023-08-30T08:42:34;20.79;62.69
69944;DHT22;57257;48.408;-4.498;2023-08-30T08:45:02;20.97;62.26
69944;DHT22;57257;48.408;-4.498;2023-08-30T08:47:30;21.08;61.68
69944;DHT22;57257;48.408;-4.498;2023-08-30T08:49:55;21.31;60.75
69944;DHT22;57257;48.408;-4.498;2023-08-30T08:52:21;21.53;60.54
69944;DHT22;57257;48.408;-4.498;2023-08-30T08:54:47;21.61;60.38
69944;DHT22;57257;48.408;-4.498;2023-08-30T08:57:13;21.50;59.89
69944;DHT22;57257;48.408;-4.498;2023-08-30T08:59:38;21.36;60.16
69944;DHT22;57257;48.408;-4.498;2023-08-30T09:02:04;21.16;60.22
69944;DHT22;57257;48.408;-4.498;2023-08-30T09:04:31;21.06;60.23
69944;DHT22;57257;48.408;-4.498;2023-08-30T09:07:00;20.95;60.15
69944;DHT22;57257;48.408;-4.498;2023-08-30T09:09:27;20.95;59.67
69944;DHT22;57257;48.408;-4.498;2023-08-30T09:11:53;21.07;60.25
69944;DHT22;57257;48.408;-4.498;2023-08-30T09:14:19;21.34;59.84
69944;DHT22;57257;48.408;-4.498;2023-08-30T09:16:59;21.57;59.36
69944;DHT22;57257;48.408;-4.498;2023-08-30T09:19:25;21.57;59.04
69944;DHT22;57257;48.408;-4.498;2023-08-30T09:21:52;21.46;58.97
69944;DHT22;57257;48.408;-4.498;2023-08-30T09:24:18;21.27;58.72
69944;DHT22;57257;48.408;-4.498;2023-08-30T09:26:47;21.13;58.47
69944;DHT22;57257;48.408;-4.498;2023-08-30T09:29:13;21.08;59.04
69944;DHT22;57257;48.408;-4.498;2023-08-30T09:31:39;20.96;58.94
69944;DHT22;57257;48.408;-4.498;2023-08-30T09:34:07;20.95;59.29
69944;DHT22;57257;48.408;-4.498;2023-08-30T09:36:40;21.11;59.82
69944;DHT22;57257;48.408;-4.498;2023-08-30T09:39:10;21.31;58.36
69944;DHT22;57257;48.408;-4.498;2023-08-30T09:41:37;21.51;58.73
69944;DHT22;57257;48.408;-4.498;2023-08-30T09:44:12;21.81;57.67
69944;DHT22;57257;48.408;-4.498;2023-08-30T09:46:54;22.04;57.21
69944;DHT22;57257;48.408;-4.498;2023-08-30T09:51:47;22.00;56.01
69944;DHT22;57257;48.408;-4.498;2023-08-30T09:54:23;21.87;56.63
69944;DHT22;57257;48.408;-4.498;2023-08-30T09:56:49;21.71;56.34
69944;DHT22;57257;48.408;-4.498;2023-08-30T09:59:18;21.64;55.77
69944;DHT22;57257;48.408;-4.498;2023-08-30T10:01:46;21.55;56.54
69944;DHT22;57257;48.408;-4.498;2023-08-30T10:04:12;21.67;55.79
69944;DHT22;57257;48.408;-4.498;2023-08-30T10:06:38;21.70;56.17
69944;DHT22;57257;48.408;-4.498;2023-08-30T10:09:05;21.78;56.62
69944;DHT22;57257;48.408;-4.498;2023-08-30T10:11:38;21.94;55.63
69944;DHT22;57257;48.408;-4.498;2023-08-30T10:14:04;21.82;56.23
69944;DHT22;57257;48.408;-4.498;2023-08-30T10:16:42;21.68;55.62
69944;DHT22;57257;48.408;-4.498;2023-08-30T10:19:21;21.60;56.29
69944;DHT22;57257;48.408;-4.498;2023-08-30T10:21:56;21.68;56.06
69944;DHT22;57257;48.408;-4.498;2023-08-30T10:24:24;21.88;55.24
69944;DHT22;57257;48.408;-4.498;2023-08-30T10:26:50;22.16;55.12
69944;DHT22;57257;48.408;-4.498;2023-08-30T10:29:17;22.43;55.36
69944;DHT22;57257;48.408;-4.498;2023-08-30T10:31:44;22.67;54.51
69944;DHT22;57257;48.408;-4.498;2023-08-30T10:34:17;22.65;53.59
69944;DHT22;57257;48.408;-4.498;2023-08-30T10:36:43;22.52;53.90
69944;DHT22;57257;48.408;-4.498;2023-08-30T10:39:14;22.32;53.79
69944;DHT22;57257;48.408;-4.498;2023-08-30T10:41:58;22.22;54.77
69944;DHT22;57257;48.408;-4.498;2023-08-30T10:44:23;22.21;54.50
69944;DHT22;57257;48.408;-4.498;2023-08-30T10:46:53;22.18;55.23
69944;DHT22;57257;48.408;-4.498;2023-08-30T10:49:20;22.18;54.76
69944;DHT22;57257;48.408;-4.498;2023-08-30T10:51:54;22.21;54.31
69944;DHT22;57257;48.408;-4.498;2023-08-30T10:54:20;22.39;54.98
69944;DHT22;57257;48.408;-4.498;2023-08-30T10:56:56;22.60;54.69
69944;DHT22;57257;48.408;-4.498;2023-08-30T10:59:23;22.66;54.51
69944;DHT22;57257;48.408;-4.498;2023-08-30T11:01:51;22.63;54.16
69944;DHT22;57257;48.408;-4.498;2023-08-30T11:04:18;22.60;54.81
69944;DHT22;57257;48.408;-4.498;2023-08-30T11:06:47;22.59;54.72
69944;DHT22;57257;48.408;-4.498;2023-08-30T11:09:17;22.57;54.69
69944;DHT22;57257;48.408;-4.498;2023-08-30T11:11:43;22.62;55.04
69944;DHT22;57257;48.408;-4.498;2023-08-30T11:14:10;22.75;54.87
69944;DHT22;57257;48.408;-4.498;2023-08-30T11:16:36;22.82;54.28
69944;DHT22;57257;48.408;-4.498;2023-08-30T11:19:03;22.79;53.63
69944;DHT22;57257;48.408;-4.498;2023-08-30T11:21:34;22.83;53.93
69944;DHT22;57257;48.408;-4.498;2023-08-30T11:24:00;23.07;54.26
69944;DHT22;57257;48.408;-4.498;2023-08-30T11:26:26;23.21;52.52
69944;DHT22;57257;48.408;-4.498;2023-08-30T11:28:51;23.26;52.93
69944;DHT22;57257;48.408;-4.498;2023-08-30T11:31:25;23.38;52.91
69944;DHT22;57257;48.408;-4.498;2023-08-30T11:33:54;23.41;51.53
69944;DHT22;57257;48.408;-4.498;2023-08-30T11:36:22;23.38;51.19
69944;DHT22;57257;48.408;-4.498;2023-08-30T11:38:49;23.26;50.60
69944;DHT22;57257;48.408;-4.498;2023-08-30T11:41:15;23.17;51.21
69944;DHT22;57257;48.408;-4.498;2023-08-30T11:43:41;23.18;51.47
69944;DHT22;57257;48.408;-4.498;2023-08-30T11:46:08;23.36;51.89
69944;DHT22;57257;48.408;-4.498;2023-08-30T11:48:34;23.41;51.62
69944;DHT22;57257;48.408;-4.498;2023-08-30T11:51:00;23.41;51.84
69944;DHT22;57257;48.408;-4.498;2023-08-30T11:53:26;23.30;51.51
69944;DHT22;57257;48.408;-4.498;2023-08-30T11:55:53;23.23;52.01
69944;DHT22;57257;48.408;-4.498;2023-08-30T11:58:18;23.24;52.20
69944;DHT22;57257;48.408;-4.498;2023-08-30T12:00:44;23.26;51.66
69944;DHT22;57257;48.408;-4.498;2023-08-30T12:03:13;23.16;51.37
69944;DHT22;57257;48.408;-4.498;2023-08-30T12:05:49;23.07;52.23
69944;DHT22;57257;48.408;-4.498;2023-08-30T12:08:26;23.06;52.31
69944;DHT22;57257;48.408;-4.498;2023-08-30T12:10:52;23.26;52.43
69944;DHT22;57257;48.408;-4.498;2023-08-30T12:15:57;23.67;51.81
69944;DHT22;57257;48.408;-4.498;2023-08-30T12:18:28;23.71;51.61
69944;DHT22;57257;48.408;-4.498;2023-08-30T12:21:05;23.72;50.90
69944;DHT22;57257;48.408;-4.498;2023-08-30T12:23:32;23.72;50.45
69944;DHT22;57257;48.408;-4.498;2023-08-30T12:26:10;23.70;50.27
69944;DHT22;57257;48.408;-4.498;2023-08-30T12:28:38;23.67;49.80
69944;DHT22;57257;48.408;-4.498;2023-08-30T12:31:04;23.48;48.96
69944;DHT22;57257;48.408;-4.498;2023-08-30T12:33:30;23.37;49.66
69944;DHT22;57257;48.408;-4.498;2023-08-30T12:35:57;23.40;50.41
69944;DHT22;57257;48.408;-4.498;2023-08-30T12:38:24;23.40;49.74
69944;DHT22;57257;48.408;-4.498;2023-08-30T12:40:51;23.47;50.00
69944;DHT22;57257;48.408;-4.498;2023-08-30T12:43:19;23.55;49.38
69944;DHT22;57257;48.408;-4.498;2023-08-30T12:45:48;23.67;49.48
69944;DHT22;57257;48.408;-4.498;2023-08-30T12:48:15;23.79;49.77
69944;DHT22;57257;48.408;-4.498;2023-08-30T12:50:42;23.92;49.08
69944;DHT22;57257;48.408;-4.498;2023-08-30T12:53:08;24.13;49.00
69944;DHT22;57257;48.408;-4.498;2023-08-30T12:55:34;24.30;49.35
69944;DHT22;57257;48.408;-4.498;2023-08-30T12:58:00;24.26;48.47
69944;DHT22;57257;48.408;-4.498;2023-08-30T13:00:26;24.13;48.08
69944;DHT22;57257;48.408;-4.498;2023-08-30T13:02:52;24.04;48.80
69944;DHT22;57257;48.408;-4.498;2023-08-30T13:05:18;23.97;48.99
69944;DHT22;57257;48.408;-4.498;2023-08-30T13:07:43;23.91;49.10
69944;DHT22;57257;48.408;-4.498;2023-08-30T13:10:10;23.97;49.35
69944;DHT22;57257;48.408;-4.498;2023-08-30T13:12:35;24.21;49.48
69944;DHT22;57257;48.408;-4.498;2023-08-30T13:15:02;24.53;49.24
69944;DHT22;57257;48.408;-4.498;2023-08-30T13:17:27;24.57;48.06
69944;DHT22;57257;48.408;-4.498;2023-08-30T13:19:52;24.65;48.06
69944;DHT22;57257;48.408;-4.498;2023-08-30T13:22:18;24.83;48.30
69944;DHT22;57257;48.408;-4.498;2023-08-30T13:24:44;24.96;47.14
69944;DHT22;57257;48.408;-4.498;2023-08-30T13:27:10;24.87;46.79
69944;DHT22;57257;48.408;-4.498;2023-08-30T13:29:36;24.70;47.37
69944;DHT22;57257;48.408;-4.498;2023-08-30T13:32:01;24.55;47.02
69944;DHT22;57257;48.408;-4.498;2023-08-30T13:34:26;24.46;47.83
69944;DHT22;57257;48.408;-4.498;2023-08-30T13:36:52;24.46;47.52
69944;DHT22;57257;48.408;-4.498;2023-08-30T13:39:17;24.48;47.23
69944;DHT22;57257;48.408;-4.498;2023-08-30T13:41:46;24.40;47.25
69944;DHT22;57257;48.408;-4.498;2023-08-30T13:44:12;24.42;47.14
69944;DHT22;57257;48.408;-4.498;2023-08-30T13:46:37;24.43;47.42
69944;DHT22;57257;48.408;-4.498;2023-08-30T13:49:03;24.45;47.07
69944;DHT22;57257;48.408;-4.498;2023-08-30T13:51:28;24.53;46.88
69944;DHT22;57257;48.408;-4.498;2023-08-30T13:53:54;24.63;47.11
69944;DHT22;57257;48.408;-4.498;2023-08-30T13:56:20;24.86;47.23
69944;DHT22;57257;48.408;-4.498;2023-08-30T13:58:46;25.18;46.73
69944;DHT22;57257;48.408;-4.498;2023-08-30T14:01:11;25.37;45.99
69944;DHT22;57257;48.408;-4.498;2023-08-30T14:03:37;25.37;45.72
69944;DHT22;57257;48.408;-4.498;2023-08-30T14:06:03;25.37;45.61
69944;DHT22;57257;48.408;-4.498;2023-08-30T14:08:29;25.40;44.89
69944;DHT22;57257;48.408;-4.498;2023-08-30T14:10:55;25.48;45.53
69944;DHT22;57257;48.408;-4.498;2023-08-30T14:13:20;25.48;44.90
69944;DHT22;57257;48.408;-4.498;2023-08-30T14:15:46;25.31;44.15
69944;DHT22;57257;48.408;-4.498;2023-08-30T14:18:12;25.11;45.22
69944;DHT22;57257;48.408;-4.498;2023-08-30T14:20:37;25.08;45.00
69944;DHT22;57257;48.408;-4.498;2023-08-30T14:23:03;25.03;44.16
69944;DHT22;57257;48.408;-4.498;2023-08-30T14:25:29;25.11;44.52
69944;DHT22;57257;48.408;-4.498;2023-08-30T14:27:54;25.17;44.61
69944;DHT22;57257;48.408;-4.498;2023-08-30T14:30:20;25.40;44.48
69944;DHT22;57257;48.408;-4.498;2023-08-30T14:32:46;25.60;43.37
69944;DHT22;57257;48.408;-4.498;2023-08-30T14:35:11;25.65;42.92
69944;DHT22;57257;48.408;-4.498;2023-08-30T14:37:37;25.60;42.41
69944;DHT22;57257;48.408;-4.498;2023-08-30T14:40:03;25.57;42.84
69944;DHT22;57257;48.408;-4.498;2023-08-30T14:42:29;25.62;43.15
69944;DHT22;57257;48.408;-4.498;2023-08-30T14:44:55;25.78;43.02
69944;DHT22;57257;48.408;-4.498;2023-08-30T14:47:20;25.84;42.09
69944;DHT22;57257;48.408;-4.498;2023-08-30T14:49:46;25.88;41.48
69944;DHT22;57257;48.408;-4.498;2023-08-30T14:52:13;26.01;42.04
69944;DHT22;57257;48.408;-4.498;2023-08-30T14:54:38;26.14;40.82
69944;DHT22;57257;48.408;-4.498;2023-08-30T14:57:03;26.25;41.01
69944;DHT22;57257;48.408;-4.498;2023-08-30T14:59:29;26.42;40.72
69944;DHT22;57257;48.408;-4.498;2023-08-30T15:01:55;26.64;39.80
69944;DHT22;57257;48.408;-4.498;2023-08-30T15:04:20;26.80;38.60
69944;DHT22;57257;48.408;-4.498;2023-08-30T15:06:46;26.87;38.39
69944;DHT22;57257;48.408;-4.498;2023-08-30T15:09:11;27.11;38.85
69944;DHT22;57257;48.408;-4.498;2023-08-30T15:11:37;27.45;38.54
69944;DHT22;57257;48.408;-4.498;2023-08-30T15:14:03;27.69;37.00
69944;DHT22;57257;48.408;-4.498;2023-08-30T15:16:28;27.96;36.38